Time;durP1;ratioP1;P1;durP2;ratioP2;P2;SDS_P1;SDS_P2;PMS_P1;PMS_P2;Temp;Humidity;BMP_temperature;BMP_pressure;BME280_temperature;BME280_humidity;BME280_pressure;Samples;Min_cycle;Max_cycle;Signal;HPM_P1;HPM_P2
2023/01/01 05:36:40;;;;;;;19.67;17.35;;;22.40;83.60;;;;;;6147452;28;84254;-65
2023/01/01 05:39:42;;;;;;;18.85;16.27;;;22.40;83.60;;;;;;6142824;28;84475;-65
2023/01/01 05:42:47;;;;;;;18.70;16.70;;;22.30;83.50;;;;;;6135998;28;84510;-66
2023/01/01 05:45:49;;;;;;;21.02;17.13;;;22.30;83.40;;;;;;6130033;28;84550;-66
2023/01/01 05:48:52;;;;;;;20.65;16.15;;;22.30;83.30;;;;;;6154255;28;85058;-66
2023/01/01 05:51:56;;;;;;;18.48;16.30;;;22.40;83.40;;;;;;6153450;28;85698;-66
2023/01/01 05:54:59;;;;;;;19.25;17.25;;;22.30;83.30;;;;;;6151031;28;83945;-65
2023/01/01 05:58:01;;;;;;;18.15;16.35;;;22.40;83.30;;;;;;6152707;28;84342;-65
2023/01/01 06:01:08;;;;;;;17.98;15.98;;;22.40;83.30;;;;;;6146285;28;85336;-66
2023/01/01 06:04:10;;;;;;;17.65;15.88;;;22.40;83.30;;;;;;6142223;28;84252;-66
2023/01/01 06:07:14;;;;;;;19.05;16.45;;;22.40;83.30;;;;;;6133817;28;85346;-66
2023/01/01 06:10:16;;;;;;;18.73;16.60;;;22.50;83.30;;;;;;6140125;28;85399;-66
2023/01/01 06:13:18;;;;;;;18.17;15.63;;;22.40;83.30;;;;;;6144744;28;84146;-66
2023/01/01 06:16:21;;;;;;;17.30;15.50;;;22.50;83.20;;;;;;6145938;28;84359;-66
2023/01/01 06:19:23;;;;;;;17.83;15.32;;;22.50;83.30;;;;;;6133426;28;84968;-65
2023/01/01 06:22:26;;;;;;;18.73;15.93;;;22.50;83.20;;;;;;6137917;28;84461;-66
2023/01/01 06:25:28;;;;;;;18.38;16.15;;;22.50;83.20;;;;;;6138212;28;84241;-66
2023/01/01 06:28:30;;;;;;;17.15;15.38;;;22.50;83.10;;;;;;6155130;28;83637;-66
2023/01/01 06:31:33;;;;;;;17.88;16.08;;;22.50;83.10;;;;;;6142562;28;84339;-66
2023/01/01 06:34:35;;;;;;;17.33;15.50;;;22.50;83.00;;;;;;6139019;28;84530;-66
2023/01/01 06:37:38;;;;;;;19.23;15.00;;;22.50;83.00;;;;;;6140623;28;84370;-66
2023/01/01 06:40:40;;;;;;;16.05;14.43;;;22.50;82.90;;;;;;6138856;28;83661;-66
2023/01/01 06:43:43;;;;;;;17.63;15.75;;;22.50;82.80;;;;;;6145982;28;85287;-67
2023/01/01 06:46:45;;;;;;;17.75;15.60;;;22.50;82.80;;;;;;6157638;28;84104;-67
2023/01/01 06:49:47;;;;;;;16.55;14.85;;;22.50;82.80;;;;;;6137798;28;84617;-67
2023/01/01 06:52:50;;;;;;;17.13;15.32;;;22.50;82.80;;;;;;6139830;28;84889;-67
2023/01/01 06:55:53;;;;;;;16.52;14.30;;;22.50;82.80;;;;;;6139886;28;84182;-67
2023/01/01 06:58:55;;;;;;;16.95;15.07;;;22.50;82.80;;;;;;6137094;28;84917;-66
2023/01/01 07:01:57;;;;;;;16.30;14.60;;;22.50;82.70;;;;;;6153468;28;84408;-66
2023/01/01 07:04:59;;;;;;;17.27;15.40;;;22.50;82.80;;;;;;6141154;28;84134;-66
2023/01/01 07:08:03;;;;;;;18.25;14.65;;;22.50;82.70;;;;;;6138712;28;84379;-66
2023/01/01 07:11:05;;;;;;;17.60;14.15;;;22.50;82.30;;;;;;6139044;28;84102;-66
2023/01/01 07:14:07;;;;;;;16.85;14.52;;;22.50;80.10;;;;;;6142826;28;84683;-66
2023/01/01 07:17:09;;;;;;;15.85;14.05;;;22.50;80.40;;;;;;6153244;28;85079;-66
2023/01/01 07:20:12;;;;;;;16.00;14.38;;;22.50;81.20;;;;;;6145286;28;84859;-66
2023/01/01 07:23:15;;;;;;;16.52;14.57;;;22.50;81.30;;;;;;6140855;28;84147;-67
2023/01/01 07:26:17;;;;;;;15.45;13.85;;;22.50;81.40;;;;;;6136893;28;85824;-67
2023/01/01 07:29:19;;;;;;;14.70;13.10;;;22.50;80.50;;;;;;6140615;28;84266;-66
2023/01/01 07:32:21;;;;;;;14.70;13.27;;;22.50;79.60;;;;;;6137552;28;84578;-67
2023/01/01 07:35:23;;;;;;;15.30;13.70;;;22.50;79.60;;;;;;6154014;28;84452;-66
2023/01/01 07:38:27;;;;;;;15.13;13.52;;;22.50;80.00;;;;;;6140349;28;84675;-66
2023/01/01 07:41:29;;;;;;;15.25;13.65;;;22.50;80.40;;;;;;6139754;28;84435;-66
2023/01/01 07:44:31;;;;;;;15.60;13.27;;;22.50;80.90;;;;;;6140949;28;84019;-65
2023/01/01 07:47:33;;;;;;;15.13;13.20;;;22.50;81.50;;;;;;6145591;28;84210;-67
2023/01/01 07:50:37;;;;;;;17.30;13.10;;;22.50;81.50;;;;;;6145365;28;85155;-67
2023/01/01 07:53:40;;;;;;;16.02;13.15;;;22.50;81.80;;;;;;6143455;28;84550;-67
2023/01/01 07:56:42;;;;;;;14.95;12.80;;;22.50;81.80;;;;;;6136807;28;84784;-66
2023/01/01 07:59:44;;;;;;;14.20;12.70;;;22.50;81.90;;;;;;6142861;28;84175;-68
2023/01/01 08:02:46;;;;;;;17.20;12.98;;;22.60;82.00;;;;;;6146486;28;83667;-68
2023/01/01 08:05:48;;;;;;;14.10;12.60;;;22.50;82.00;;;;;;6137357;28;84011;-66
2023/01/01 08:08:52;;;;;;;15.05;13.10;;;22.50;82.00;;;;;;6152689;28;85991;-67
2023/01/01 08:11:57;;;;;;;14.55;12.23;;;22.60;82.10;;;;;;6144278;28;85246;-67
2023/01/01 08:14:59;;;;;;;14.38;12.23;;;22.60;82.50;;;;;;6157326;28;84080;-67
2023/01/01 08:18:03;;;;;;;13.45;12.15;;;22.60;82.60;;;;;;6159436;28;84321;-67
2023/01/01 08:21:06;;;;;;;14.02;12.57;;;22.60;82.60;;;;;;6158484;28;85384;-67
2023/01/01 08:24:09;;;;;;;15.80;12.35;;;22.60;82.60;;;;;;6158422;28;84069;-67
2023/01/01 08:27:13;;;;;;;13.75;11.85;;;22.60;82.50;;;;;;6159462;28;83968;-67
2023/01/01 08:30:16;;;;;;;15.02;12.73;;;22.60;82.50;;;;;;6156154;28;84033;-67
2023/01/01 08:33:18;;;;;;;13.35;11.95;;;22.60;82.60;;;;;;6156628;28;84079;-67
2023/01/01 08:36:20;;;;;;;15.10;12.48;;;22.60;82.70;;;;;;6157186;28;84669;-67
2023/01/01 08:39:24;;;;;;;13.80;12.27;;;22.70;82.80;;;;;;6154924;28;84005;-67
2023/01/01 08:42:26;;;;;;;14.85;12.43;;;22.70;83.10;;;;;;6157122;28;84036;-67
2023/01/01 08:45:28;;;;;;;13.57;12.07;;;22.60;83.30;;;;;;6156326;28;84137;-67
2023/01/01 08:48:30;;;;;;;17.13;12.48;;;22.60;83.40;;;;;;6156299;28;84111;-67
2023/01/01 08:51:32;;;;;;;14.75;12.10;;;22.70;83.60;;;;;;6157786;28;85484;-68
2023/01/01 08:54:36;;;;;;;16.80;12.48;;;22.70;83.80;;;;;;6154945;28;83941;-67
2023/01/01 08:57:38;;;;;;;14.32;11.30;;;22.70;83.80;;;;;;6156239;28;83856;-67
2023/01/01 09:00:40;;;;;;;12.85;11.48;;;22.70;84.00;;;;;;6154467;28;83865;-68
2023/01/01 09:03:43;;;;;;;12.70;11.30;;;22.70;84.00;;;;;;6156959;28;84216;-67
2023/01/01 09:06:45;;;;;;;13.68;11.65;;;22.70;84.10;;;;;;6158311;28;84315;-68
2023/01/01 09:09:48;;;;;;;14.48;10.88;;;22.80;84.40;;;;;;6157566;28;84041;-67
2023/01/01 09:12:50;;;;;;;16.80;11.65;;;22.80;84.80;;;;;;6153639;28;82831;-67
2023/01/01 09:15:52;;;;;;;15.15;11.35;;;22.70;82.20;;;;;;6155016;28;83687;-68
2023/01/01 09:18:54;;;;;;;15.13;11.55;;;22.90;79.10;;;;;;6157099;28;84121;-67
2023/01/01 09:21:57;;;;;;;15.23;10.95;;;22.80;77.80;;;;;;6154994;28;85481;-70
2023/01/01 09:25:00;;;;;;;12.60;10.27;;;22.70;77.00;;;;;;6154738;28;84206;-69
2023/01/01 09:28:04;;;;;;;23.73;13.40;;;22.70;76.70;;;;;;6155299;28;84851;-66
2023/01/01 09:31:07;;;;;;;102.72;39.75;;;22.70;77.40;;;;;;6155436;28;84547;-69
2023/01/01 09:34:09;;;;;;;33.13;18.98;;;22.80;83.50;;;;;;6160422;28;84359;-70
2023/01/01 09:37:11;;;;;;;21.27;12.10;;;22.80;81.90;;;;;;6155053;28;84033;-69
2023/01/01 09:40:26;;;;;;;18.27;11.40;;;22.80;79.20;;;;;;6157740;28;85700;-72
2023/01/01 09:43:38;;;;;;;17.88;11.43;;;22.90;79.00;;;;;;6149750;28;83261;-70
2023/01/01 09:46:40;;;;;;;19.35;11.90;;;22.80;79.30;;;;;;6155747;28;82989;-70
2023/01/01 09:49:45;;;;;;;17.35;11.40;;;22.90;80.00;;;;;;6154097;28;84209;-70
2023/01/01 09:52:54;;;;;;;23.88;11.10;;;22.90;80.40;;;;;;6154626;28;84956;-67
2023/01/01 09:55:58;;;;;;;20.92;11.02;;;23.00;80.30;;;;;;6152335;28;84206;-69
2023/01/01 09:59:00;;;;;;;21.27;11.35;;;22.90;80.50;;;;;;6159139;28;83811;-68
2023/01/01 10:02:17;;;;;;;16.38;10.93;;;23.00;81.90;;;;;;6157680;28;84310;-68
2023/01/01 10:05:31;;;;;;;20.50;10.68;;;22.90;82.30;;;;;;6158774;28;84084;-68
2023/01/01 10:08:45;;;;;;;16.08;9.95;;;22.90;82.40;;;;;;6155879;28;83126;-67
2023/01/01 10:11:55;;;;;;;17.33;10.27;;;23.00;82.50;;;;;;6161999;28;83254;-67
2023/01/01 10:15:06;;;;;;;17.83;11.07;;;23.00;82.20;;;;;;6158609;28;85008;-68
2023/01/01 10:18:17;;;;;;;17.55;10.60;;;23.00;82.10;;;;;;6160165;28;84104;-68
2023/01/01 10:21:23;;;;;;;16.35;10.27;;;23.00;82.00;;;;;;6158413;28;82789;-68
2023/01/01 10:24:40;;;;;;;15.77;10.07;;;23.00;82.10;;;;;;6160757;28;85051;-67
2023/01/01 10:27:47;;;;;;;15.13;10.05;;;23.00;82.10;;;;;;6160160;28;83857;-67
2023/01/01 10:30:53;;;;;;;19.52;10.15;;;23.10;81.90;;;;;;6159651;28;83393;-67
2023/01/01 10:33:55;;;;;;;14.00;9.55;;;23.00;81.40;;;;;;6159418;28;84309;-67
2023/01/01 10:36:59;;;;;;;18.77;10.25;;;23.00;81.30;;;;;;6158703;28;82789;-67
2023/01/01 10:40:13;;;;;;;13.93;9.65;;;23.00;81.20;;;;;;6159989;28;84135;-67
2023/01/01 10:43:17;;;;;;;13.70;9.60;;;23.00;81.30;;;;;;6161622;28;82954;-67
2023/01/01 10:46:24;;;;;;;18.70;10.38;;;23.00;81.50;;;;;;6159829;28;83424;-67
2023/01/01 10:49:26;;;;;;;22.20;10.27;;;23.00;81.80;;;;;;6160158;28;83140;-67
2023/01/01 10:52:34;;;;;;;19.05;10.48;;;23.00;81.90;;;;;;6162077;28;84100;-67
2023/01/01 10:55:36;;;;;;;20.25;11.00;;;23.00;82.00;;;;;;6155138;28;85076;-67
2023/01/01 10:58:42;;;;;;;20.05;10.40;;;23.10;82.50;;;;;;6160702;28;84045;-67
2023/01/01 11:01:44;;;;;;;24.40;11.40;;;23.10;82.70;;;;;;6158607;28;83255;-67
2023/01/01 11:04:47;;;;;;;19.42;10.40;;;23.10;82.80;;;;;;6161696;28;84078;-67
2023/01/01 11:07:50;;;;;;;19.70;9.85;;;23.00;82.80;;;;;;6160853;28;84260;-67
2023/01/01 11:10:52;;;;;;;18.70;10.57;;;23.00;82.80;;;;;;6162625;28;84238;-67
2023/01/01 11:13:57;;;;;;;17.20;9.93;;;23.10;82.80;;;;;;6161162;28;83070;-67
2023/01/01 11:17:00;;;;;;;15.60;9.65;;;23.10;82.90;;;;;;6162631;28;83363;-66
2023/01/01 11:20:04;;;;;;;15.40;9.90;;;23.00;82.90;;;;;;6161825;28;84287;-67
2023/01/01 11:23:29;;;;;;;18.70;9.95;;;23.00;83.00;;;;;;6161244;28;84397;-67
2023/01/01 11:26:31;;;;;;;18.70;9.82;;;23.00;83.00;;;;;;6149597;28;85567;-67
2023/01/01 11:29:34;;;;;;;14.27;9.35;;;23.00;83.10;;;;;;6160535;28;84233;-67
2023/01/01 11:32:37;;;;;;;15.23;9.32;;;23.00;83.10;;;;;;6161246;28;83848;-67
2023/01/01 11:35:52;;;;;;;17.23;10.25;;;23.00;83.20;;;;;;6161570;28;84033;-67
2023/01/01 11:39:08;;;;;;;15.65;10.10;;;23.00;83.00;;;;;;6158969;28;82757;-67
2023/01/01 11:42:17;;;;;;;15.38;9.20;;;23.00;83.00;;;;;;6155390;28;83270;-67
2023/01/01 11:45:24;;;;;;;14.32;9.40;;;23.00;83.00;;;;;;6162019;28;84130;-67
2023/01/01 11:48:29;;;;;;;14.25;9.35;;;23.00;83.00;;;;;;6161529;28;83382;-67
2023/01/01 11:51:33;;;;;;;15.18;9.65;;;23.00;83.00;;;;;;6161898;28;84140;-67
2023/01/01 11:54:36;;;;;;;15.88;9.50;;;23.00;83.00;;;;;;6158503;28;83264;-67
2023/01/01 11:57:41;;;;;;;12.80;8.80;;;23.00;83.00;;;;;;6159265;28;85113;-67
2023/01/01 12:00:47;;;;;;;13.05;9.35;;;23.10;83.20;;;;;;6161692;28;83005;-67
2023/01/01 12:03:54;;;;;;;13.05;8.63;;;23.00;83.00;;;;;;6161251;28;84153;-67
2023/01/01 12:07:02;;;;;;;12.07;8.52;;;23.00;83.20;;;;;;6160785;28;84158;-67
2023/01/01 12:10:13;;;;;;;12.40;8.82;;;23.00;83.20;;;;;;6160451;28;84092;-67
2023/01/01 12:13:18;;;;;;;10.60;8.27;;;23.00;83.30;;;;;;6159942;28;82914;-67
2023/01/01 12:16:28;;;;;;;11.82;8.43;;;23.00;83.30;;;;;;6159127;28;84095;-67
2023/01/01 12:19:35;;;;;;;13.05;8.85;;;23.00;83.30;;;;;;6160505;28;83359;-67
2023/01/01 12:22:38;;;;;;;11.13;8.13;;;23.00;83.30;;;;;;6160891;28;84132;-67
2023/01/01 12:25:43;;;;;;;14.05;8.65;;;23.00;83.30;;;;;;6160448;28;84350;-67
2023/01/01 12:29:03;;;;;;;12.10;8.32;;;23.00;83.40;;;;;;6153400;28;85259;-67
2023/01/01 12:32:15;;;;;;;12.95;8.50;;;23.00;83.40;;;;;;6158295;28;82967;-67
2023/01/01 12:35:28;;;;;;;15.40;8.80;;;23.00;83.10;;;;;;6153243;28;84084;-67
2023/01/01 12:38:55;;;;;;;10.00;8.50;;;23.10;82.70;;;;;;6160221;28;84528;-67
2023/01/01 12:42:03;;;;;;;16.10;9.25;;;23.00;82.70;;;;;;6155193;28;84412;-67
2023/01/01 12:45:26;;;;;;;15.32;9.05;;;23.00;82.80;;;;;;6159172;28;85581;-68
2023/01/01 12:48:52;;;;;;;14.90;9.40;;;23.00;82.80;;;;;;6149898;28;84086;-67
2023/01/01 12:52:13;;;;;;;12.93;9.00;;;23.00;82.80;;;;;;6160315;28;83719;-68
2023/01/01 12:55:41;;;;;;;13.45;9.05;;;23.10;82.90;;;;;;6157574;28;83696;-67
2023/01/01 12:58:49;;;;;;;12.00;8.63;;;23.00;82.90;;;;;;6159173;28;84231;-67
2023/01/01 13:01:56;;;;;;;13.25;8.82;;;23.00;82.90;;;;;;6158284;28;84070;-67
2023/01/01 13:05:05;;;;;;;12.70;8.73;;;23.00;82.80;;;;;;6160691;28;84004;-67
2023/01/01 13:08:08;;;;;;;11.52;9.40;;;23.00;82.80;;;;;;6159332;28;84073;-67
2023/01/01 13:11:11;;;;;;;12.52;8.63;;;23.00;82.80;;;;;;6159903;28;84615;-67
2023/01/01 13:14:13;;;;;;;10.25;8.70;;;23.00;82.80;;;;;;6172738;28;85196;-67
2023/01/01 13:17:20;;;;;;;11.38;8.85;;;23.00;82.80;;;;;;6159599;28;84033;-66
2023/01/01 13:20:25;;;;;;;11.27;8.98;;;23.00;82.80;;;;;;6160137;28;83957;-67
2023/01/01 13:23:45;;;;;;;10.93;8.38;;;23.00;82.80;;;;;;6160189;28;83202;-67
2023/01/01 13:26:48;;;;;;;10.38;9.13;;;23.00;82.80;;;;;;6159109;28;84067;-67
2023/01/01 13:29:50;;;;;;;13.52;8.65;;;23.10;82.90;;;;;;6157782;28;83965;-68
2023/01/01 13:33:15;;;;;;;12.73;8.90;;;23.00;83.00;;;;;;6157018;28;86194;-68
2023/01/01 13:36:32;;;;;;;13.13;9.15;;;23.00;84.00;;;;;;6156312;28;83909;-67
2023/01/01 13:39:54;;;;;;;12.50;8.77;;;23.00;84.20;;;;;;6156198;28;84115;-67
2023/01/01 13:43:07;;;;;;;16.35;10.38;;;23.00;84.80;;;;;;6158775;28;84103;-67
2023/01/01 13:46:09;;;;;;;14.88;10.55;;;23.00;85.00;;;;;;6156759;28;85524;-67
2023/01/01 13:49:26;;;;;;;14.73;10.32;;;23.00;83.60;;;;;;6157663;28;84073;-67
2023/01/01 13:52:46;;;;;;;12.02;10.05;;;23.00;83.50;;;;;;6158549;28;84108;-67
2023/01/01 13:56:01;;;;;;;11.73;9.80;;;23.00;83.50;;;;;;6156069;28;83181;-67
2023/01/01 13:59:35;;;;;;;11.82;9.82;;;23.00;83.50;;;;;;6157666;28;84148;-67
2023/01/01 14:02:42;;;;;;;11.43;10.32;;;23.00;83.40;;;;;;6158703;28;82121;-69
2023/01/01 14:05:48;;;;;;;12.30;10.05;;;22.90;83.30;;;;;;6158183;28;83875;-69
2023/01/01 14:09:02;;;;;;;12.10;9.60;;;22.90;83.30;;;;;;6157568;28;83997;-67
2023/01/01 14:12:10;;;;;;;11.10;9.90;;;22.90;83.30;;;;;;6158680;28;84079;-66
2023/01/01 14:15:17;;;;;;;12.60;11.30;;;22.90;83.30;;;;;;6154532;28;84197;-67
2023/01/01 14:18:22;;;;;;;13.77;11.45;;;22.90;82.70;;;;;;6157597;28;82719;-67
2023/01/01 14:21:26;;;;;;;14.48;11.35;;;22.90;82.00;;;;;;6156707;28;84359;-67
2023/01/01 14:24:30;;;;;;;13.23;11.13;;;22.90;82.30;;;;;;6156579;28;83880;-67
2023/01/01 14:27:32;;;;;;;15.18;11.32;;;22.90;82.50;;;;;;6168771;28;83630;-67
2023/01/01 14:30:34;;;;;;;12.82;11.45;;;22.90;82.50;;;;;;6169027;28;84089;-67
2023/01/01 14:33:37;;;;;;;12.82;10.35;;;22.90;82.70;;;;;;6158180;28;82891;-67
2023/01/01 14:36:50;;;;;;;13.38;10.90;;;22.90;82.60;;;;;;6156614;28;83707;-67
2023/01/01 14:40:17;;;;;;;12.90;11.02;;;22.90;82.60;;;;;;6152899;28;85367;-67
2023/01/01 14:43:19;;;;;;;13.07;10.63;;;22.90;82.60;;;;;;6148509;28;84199;-67
2023/01/01 14:46:25;;;;;;;13.98;10.55;;;22.90;82.70;;;;;;6160285;28;84522;-67
2023/01/01 14:49:32;;;;;;;12.68;11.38;;;22.90;82.70;;;;;;6158286;28;84948;-67
2023/01/01 14:52:35;;;;;;;12.25;11.05;;;22.90;82.80;;;;;;6161098;28;83877;-66
2023/01/01 14:55:42;;;;;;;13.48;11.32;;;22.90;82.80;;;;;;6160825;28;83118;-67
2023/01/01 14:58:44;;;;;;;12.45;11.15;;;22.90;82.90;;;;;;6161449;28;83982;-67
2023/01/01 15:01:46;;;;;;;13.30;11.35;;;22.90;83.80;;;;;;6160861;28;83292;-67
2023/01/01 15:04:48;;;;;;;14.68;11.57;;;22.90;82.90;;;;;;6160793;28;84039;-67
2023/01/01 15:07:57;;;;;;;11.93;10.73;;;22.90;82.80;;;;;;6162735;28;85104;-67
2023/01/01 15:11:03;;;;;;;12.10;10.90;;;22.90;83.20;;;;;;6148597;28;84043;-68
2023/01/01 15:14:06;;;;;;;11.68;10.48;;;22.90;83.20;;;;;;6161179;28;86540;-67
2023/01/01 15:17:09;;;;;;;12.98;11.65;;;22.90;83.00;;;;;;6159745;28;83759;-68
2023/01/01 15:20:22;;;;;;;13.55;11.63;;;22.90;83.80;;;;;;6150423;28;84102;-68
2023/01/01 15:23:24;;;;;;;12.27;11.07;;;23.00;83.70;;;;;;6143246;28;82820;-68
2023/01/01 15:26:33;;;;;;;13.45;11.70;;;23.00;83.70;;;;;;6157661;28;84174;-67
2023/01/01 15:29:37;;;;;;;17.08;13.10;;;23.00;83.30;;;;;;6158377;28;83631;-66
2023/01/01 15:32:39;;;;;;;14.30;12.20;;;23.00;83.50;;;;;;6157960;28;84230;-67
2023/01/01 15:35:46;;;;;;;13.88;11.82;;;23.00;83.20;;;;;;6158930;28;84159;-66
2023/01/01 15:38:49;;;;;;;15.93;12.25;;;23.00;83.00;;;;;;6158188;28;85959;-67
2023/01/01 15:41:53;;;;;;;14.63;12.30;;;23.00;83.10;;;;;;6152346;28;84192;-68
2023/01/01 15:44:55;;;;;;;14.40;12.18;;;23.00;83.00;;;;;;6150715;28;83998;-67
2023/01/01 15:48:16;;;;;;;15.60;12.73;;;23.00;83.00;;;;;;6148083;28;84066;-67
2023/01/01 15:51:20;;;;;;;13.80;12.30;;;23.00;82.90;;;;;;6157624;28;85486;-67
2023/01/01 15:54:22;;;;;;;14.95;12.48;;;23.00;83.00;;;;;;6156532;28;84023;-67
2023/01/01 15:57:26;;;;;;;16.20;12.70;;;23.00;82.80;;;;;;6161880;28;84151;-68
2023/01/01 16:00:30;;;;;;;17.27;12.93;;;23.00;83.00;;;;;;6154354;28;83749;-69
2023/01/01 16:03:33;;;;;;;18.67;12.85;;;23.00;83.40;;;;;;6158141;28;84493;-68
2023/01/01 16:06:43;;;;;;;26.95;13.43;;;23.00;83.70;;;;;;6153991;28;83951;-68
2023/01/01 16:09:45;;;;;;;28.27;15.75;;;23.00;83.80;;;;;;6158640;28;85084;-72
2023/01/01 16:12:48;;;;;;;37.70;16.77;;;23.10;84.20;;;;;;6158501;28;82833;-70
2023/01/01 16:15:52;;;;;;;33.08;16.27;;;23.00;83.80;;;;;;6156423;28;84257;-70
2023/01/01 16:18:55;;;;;;;38.97;17.50;;;23.00;85.40;;;;;;6158892;28;84459;-70
2023/01/01 16:21:57;;;;;;;32.13;16.77;;;23.00;85.20;;;;;;6158778;28;84545;-70
2023/01/01 16:24:59;;;;;;;38.05;17.58;;;23.10;86.20;;;;;;6159708;28;83967;-71
2023/01/01 16:28:04;;;;;;;33.35;16.65;;;23.10;86.00;;;;;;6158286;28;84074;-70
2023/01/01 16:31:06;;;;;;;37.55;17.48;;;23.10;85.50;;;;;;6159082;28;83305;-71
2023/01/01 16:34:13;;;;;;;39.75;16.52;;;23.10;85.40;;;;;;6158942;28;84648;-70
2023/01/01 16:37:17;;;;;;;32.67;16.77;;;23.10;86.50;;;;;;6159189;28;83947;-70
2023/01/01 16:40:19;;;;;;;36.05;16.08;;;23.10;86.60;;;;;;6156866;28;84968;-70
2023/01/01 16:43:23;;;;;;;34.50;16.27;;;23.10;86.60;;;;;;6159540;28;83105;-70
2023/01/01 16:46:26;;;;;;;32.30;16.13;;;23.00;86.50;;;;;;6158526;28;82715;-70
2023/01/01 16:49:29;;;;;;;31.08;16.02;;;23.00;86.50;;;;;;6157082;28;82989;-70
2023/01/01 16:52:31;;;;;;;27.25;15.20;;;23.00;86.20;;;;;;6157726;28;84411;-70
2023/01/01 16:55:33;;;;;;;25.17;15.15;;;23.00;87.20;;;;;;6156306;28;84076;-70
2023/01/01 16:58:36;;;;;;;30.25;15.48;;;23.00;86.90;;;;;;6157401;28;82932;-70
2023/01/01 17:01:39;;;;;;;31.25;16.00;;;23.00;86.70;;;;;;6158051;28;86072;-70
2023/01/01 17:04:41;;;;;;;26.55;15.52;;;23.00;87.10;;;;;;6156732;28;84043;-70
2023/01/01 17:07:43;;;;;;;24.15;14.73;;;23.00;87.20;;;;;;6151506;28;84391;-70
2023/01/01 17:10:45;;;;;;;25.50;14.93;;;23.00;86.60;;;;;;6158215;28;85111;-71
2023/01/01 17:13:49;;;;;;;26.13;15.35;;;23.00;86.40;;;;;;6158108;28;84023;-70
2023/01/01 17:16:54;;;;;;;28.08;15.18;;;23.00;86.50;;;;;;6158898;28;82974;-70
2023/01/01 17:19:56;;;;;;;23.85;14.35;;;23.00;86.70;;;;;;6152706;28;84607;-70
2023/01/01 17:22:58;;;;;;;25.02;14.82;;;23.10;86.90;;;;;;6158416;28;84354;-70
2023/01/01 17:26:09;;;;;;;24.60;14.85;;;23.10;86.60;;;;;;6158214;28;84379;-70
2023/01/01 17:29:13;;;;;;;24.20;15.85;;;23.10;86.80;;;;;;6155212;28;83719;-69
2023/01/01 17:32:15;;;;;;;21.90;15.00;;;23.00;86.50;;;;;;6160663;28;82945;-70
2023/01/01 17:35:18;;;;;;;23.92;14.90;;;23.00;86.50;;;;;;6158410;28;83878;-70
2023/01/01 17:38:22;;;;;;;23.70;14.65;;;23.10;86.70;;;;;;6157396;28;83846;-70
2023/01/01 17:41:25;;;;;;;22.88;14.73;;;23.10;86.40;;;;;;6149013;28;85069;-70
2023/01/01 17:44:28;;;;;;;22.55;14.35;;;23.10;86.40;;;;;;6158145;28;83235;-69
2023/01/01 17:47:32;;;;;;;22.30;14.75;;;23.10;86.30;;;;;;6158909;28;82780;-69
2023/01/01 17:50:34;;;;;;;27.25;15.57;;;23.10;86.40;;;;;;6158048;28;84068;-69
2023/01/01 17:53:38;;;;;;;22.80;16.23;;;23.10;86.40;;;;;;6156521;28;84595;-69
2023/01/01 17:56:40;;;;;;;20.48;15.60;;;23.10;86.30;;;;;;6157932;28;84580;-69
2023/01/01 17:59:44;;;;;;;23.00;15.57;;;23.10;86.50;;;;;;6146506;28;84146;-70
2023/01/01 18:02:46;;;;;;;23.42;16.70;;;23.10;86.40;;;;;;6167392;28;83445;-70
2023/01/01 18:05:49;;;;;;;22.00;17.02;;;23.10;90.30;;;;;;6148683;28;83930;-71
2023/01/01 18:08:55;;;;;;;24.63;16.48;;;23.20;92.00;;;;;;6155324;28;83165;-72
2023/01/01 18:11:57;;;;;;;25.75;17.42;;;23.20;91.50;;;;;;6154937;28;85069;-70
2023/01/01 18:15:01;;;;;;;23.65;17.55;;;23.20;91.20;;;;;;6154513;28;83985;-70
2023/01/01 18:18:03;;;;;;;25.05;17.85;;;23.20;90.90;;;;;;6155463;28;84409;-71
2023/01/01 18:21:07;;;;;;;22.38;16.95;;;23.30;90.70;;;;;;6158871;28;84220;-71
2023/01/01 18:24:13;;;;;;;25.00;17.60;;;23.30;89.60;;;;;;6158935;28;84118;-70
2023/01/01 18:27:15;;;;;;;26.33;17.58;;;23.20;88.80;;;;;;6159936;28;82978;-70
2023/01/01 18:30:18;;;;;;;22.75;17.17;;;23.30;88.60;;;;;;6148285;28;84262;-70
2023/01/01 18:33:21;;;;;;;22.08;17.55;;;23.30;88.60;;;;;;6158619;28;83317;-70
2023/01/01 18:36:26;;;;;;;23.48;17.13;;;23.30;88.20;;;;;;6146249;28;82942;-70
2023/01/01 18:39:32;;;;;;;22.77;16.90;;;23.30;87.90;;;;;;6156794;28;85019;-70
2023/01/01 18:42:43;;;;;;;21.35;17.10;;;23.30;87.70;;;;;;6153908;28;85055;-69
2023/01/01 18:45:47;;;;;;;21.45;18.33;;;23.30;87.60;;;;;;6171263;28;84510;-70
2023/01/01 18:48:50;;;;;;;23.20;17.33;;;23.30;87.30;;;;;;6171054;28;84693;-69
2023/01/01 18:51:56;;;;;;;22.25;17.52;;;23.30;87.10;;;;;;6158575;28;84025;-71
2023/01/01 18:55:13;;;;;;;21.10;17.73;;;23.30;86.80;;;;;;6154066;28;84109;-71
2023/01/01 18:58:18;;;;;;;21.73;18.23;;;23.30;86.70;;;;;;6157735;28;83325;-71
2023/01/01 19:01:23;;;;;;;20.45;18.13;;;23.30;86.60;;;;;;6155492;28;83009;-70
2023/01/01 19:04:25;;;;;;;22.27;17.83;;;23.30;86.40;;;;;;6157784;28;83363;-70
2023/01/01 19:07:28;;;;;;;20.45;17.27;;;23.30;86.30;;;;;;6157798;28;84899;-70
2023/01/01 19:10:36;;;;;;;19.63;17.52;;;23.30;86.20;;;;;;6157900;28;83141;-69
2023/01/01 19:13:40;;;;;;;22.55;17.70;;;23.30;86.10;;;;;;6154970;28;84375;-70
2023/01/01 19:16:45;;;;;;;19.88;17.42;;;23.30;86.10;;;;;;6157223;28;83271;-69
2023/01/01 19:19:47;;;;;;;18.85;16.85;;;23.30;85.90;;;;;;6156163;28;84150;-69
2023/01/01 19:22:49;;;;;;;19.48;17.38;;;23.30;85.80;;;;;;6158173;28;84120;-69
2023/01/01 19:25:52;;;;;;;20.10;17.42;;;23.30;85.60;;;;;;6157904;28;85138;-69
2023/01/01 19:28:56;;;;;;;19.75;17.67;;;23.30;85.50;;;;;;6157450;28;83212;-69
2023/01/01 19:32:00;;;;;;;18.50;15.95;;;23.30;85.50;;;;;;6158341;28;84878;-69
2023/01/01 19:35:02;;;;;;;17.73;15.82;;;23.30;85.60;;;;;;6158755;28;83130;-69
2023/01/01 19:38:05;;;;;;;18.45;16.55;;;23.30;85.50;;;;;;6157694;28;84148;-70
2023/01/01 19:41:08;;;;;;;19.08;16.30;;;23.30;85.30;;;;;;6155424;28;83872;-70
2023/01/01 19:44:10;;;;;;;19.02;16.58;;;23.30;85.00;;;;;;6155756;28;85132;-69
2023/01/01 19:47:15;;;;;;;20.30;16.15;;;23.30;85.40;;;;;;6156412;28;83834;-70
2023/01/01 19:50:20;;;;;;;21.80;16.77;;;23.30;85.50;;;;;;6156245;28;83818;-69
2023/01/01 19:53:22;;;;;;;19.08;16.77;;;23.40;85.70;;;;;;6155839;28;83373;-69
2023/01/01 19:56:25;;;;;;;19.23;16.52;;;23.40;85.80;;;;;;6156707;28;84129;-69
2023/01/01 19:59:27;;;;;;;19.25;16.65;;;23.30;85.90;;;;;;6157091;28;83243;-70
2023/01/01 20:02:31;;;;;;;18.85;16.85;;;23.40;86.10;;;;;;6157330;28;82938;-69
2023/01/01 20:05:35;;;;;;;17.38;15.60;;;23.30;86.10;;;;;;6156522;28;84107;-70
2023/01/01 20:08:39;;;;;;;18.98;16.35;;;23.30;86.20;;;;;;6154607;28;83877;-71
2023/01/01 20:11:42;;;;;;;18.67;16.25;;;23.30;86.20;;;;;;6156825;28;83761;-71
2023/01/01 20:14:45;;;;;;;18.88;16.30;;;23.30;86.70;;;;;;6155666;28;84593;-70
2023/01/01 20:17:53;;;;;;;17.73;15.95;;;23.30;86.40;;;;;;6139850;28;82917;-70
2023/01/01 20:24:17;;;;;;;20.15;16.88;;;23.30;86.60;;;;;;6151011;28;82768;-70
2023/01/01 20:27:25;;;;;;;18.13;16.15;;;23.30;86.70;;;;;;6157134;28;83953;-69
2023/01/01 20:30:31;;;;;;;18.38;15.88;;;23.30;86.70;;;;;;6150330;28;84287;-71
2023/01/01 20:33:37;;;;;;;17.70;15.85;;;23.30;86.80;;;;;;6154976;28;83380;-70
2023/01/01 20:39:59;;;;;;;17.40;15.45;;;23.40;87.00;;;;;;6150012;28;82716;-69
2023/01/01 20:43:02;;;;;;;17.38;15.27;;;23.40;87.10;;;;;;6155502;28;82793;-70
2023/01/01 20:46:07;;;;;;;16.60;15.07;;;23.30;87.00;;;;;;6155427;28;84095;-69
2023/01/01 20:49:12;;;;;;;17.33;15.55;;;23.30;87.10;;;;;;6156174;28;83002;-71
2023/01/01 20:52:14;;;;;;;16.60;15.00;;;23.40;87.10;;;;;;6155951;28;84028;-70
2023/01/01 20:55:17;;;;;;;17.70;15.80;;;23.40;87.10;;;;;;6155081;28;84038;-69
2023/01/01 20:58:21;;;;;;;16.33;14.73;;;23.40;87.20;;;;;;6156601;28;84227;-71
2023/01/01 21:01:23;;;;;;;21.38;15.38;;;23.40;87.30;;;;;;6151243;28;83668;-68
2023/01/01 21:04:28;;;;;;;16.30;14.73;;;23.30;87.40;;;;;;6156549;28;83787;-70
2023/01/01 21:07:32;;;;;;;17.40;15.60;;;23.30;87.40;;;;;;6139573;28;82790;-68
2023/01/01 21:10:35;;;;;;;16.67;15.07;;;23.40;87.30;;;;;;6156296;28;82990;-68
2023/01/01 21:13:38;;;;;;;15.98;14.55;;;23.40;87.40;;;;;;6155203;28;82928;-69
2023/01/01 21:16:44;;;;;;;16.58;15.00;;;23.40;87.40;;;;;;6154447;28;83907;-69
2023/01/01 21:19:49;;;;;;;16.25;14.75;;;23.40;87.40;;;;;;6153312;28;83351;-69
2023/01/01 21:22:53;;;;;;;15.93;14.32;;;23.40;87.40;;;;;;6156202;28;82877;-71